Impacts TAF Board INFO
FOR SITUATIONAL AWARENESS. NOT TO BE USED FOR FLIGHT PLANNING PURPOSES.
IDs:

KCVG - Cincinnati Intl, KY, US

Issued at 2331 UTC 19 Jan 2018
Updated at 0106 UTC 20 Jan 2018
Potential Impact None Slight Moderate High
Time<<21/02Z 21/03Z 21/04Z 21/05Z 21/06Z 21/07Z 21/08Z 21/09Z 21/10Z 21/11Z 21/12Z 21/13Z 21/14Z
Type PRVL PRVL PRVL PRVL
VIS >6 >6 >6 >6
CIG 15 15 15 15
Cover BKN BKN BKN BKN
FltCat MVFR MVFR MVFR MVFR
WX -- -- -- --
WDir 200 200 200 200
WSpd 6 6 6 6
WGst -- -- -- --

Raw TAF
KCVG 192331Z 2000/2106 20010KT P6SM SCT250
  FM200400 22010KT P6SM FEW250 WS020/24045KT
  FM200800 22010KT P6SM FEW250
  FM201600 23013G22KT P6SM BKN025
  FM210000 20006KT P6SM BKN015


METAR Board
Radar Display
Forecast Discussion

FOR SITUATIONAL AWARENESS. NOT TO BE USED FOR FLIGHT PLANNING PURPOSES.